sensor_id;sensor_type;location;lat;lon;timestamp;temperature;humidity
61000;SHT31;46879;45.658;11.814;2024-02-21T00:01:43;17.61;70.92
61000;SHT31;46879;45.658;11.814;2024-02-21T00:06:44;17.60;70.99
61000;SHT31;46879;45.658;11.814;2024-02-21T00:11:45;17.63;70.98
61000;SHT31;46879;45.658;11.814;2024-02-21T00:16:46;17.63;71.00
61000;SHT31;46879;45.658;11.814;2024-02-21T00:21:47;17.60;71.03
61000;SHT31;46879;45.658;11.814;2024-02-21T00:26:47;17.64;71.03
61000;SHT31;46879;45.658;11.814;2024-02-21T00:31:49;17.61;71.06
61000;SHT31;46879;45.658;11.814;2024-02-21T00:36:49;17.60;71.08
61000;SHT31;46879;45.658;11.814;2024-02-21T00:41:50;17.73;72.32
61000;SHT31;46879;45.658;11.814;2024-02-21T00:46:51;17.74;71.41
61000;SHT31;46879;45.658;11.814;2024-02-21T00:51:52;17.81;71.50
61000;SHT31;46879;45.658;11.814;2024-02-21T00:56:53;17.84;71.53
61000;SHT31;46879;45.658;11.814;2024-02-21T01:01:54;17.82;71.63
61000;SHT31;46879;45.658;11.814;2024-02-21T01:06:54;17.78;71.82
61000;SHT31;46879;45.658;11.814;2024-02-21T01:11:55;17.74;71.83
61000;SHT31;46879;45.658;11.814;2024-02-21T01:16:55;17.73;71.99
61000;SHT31;46879;45.658;11.814;2024-02-21T01:21:56;17.74;71.94
61000;SHT31;46879;45.658;11.814;2024-02-21T01:26:56;17.73;72.04
61000;SHT31;46879;45.658;11.814;2024-02-21T01:31:57;17.70;71.97
61000;SHT31;46879;45.658;11.814;2024-02-21T01:36:57;17.70;71.92
61000;SHT31;46879;45.658;11.814;2024-02-21T01:41:59;17.68;71.95
61000;SHT31;46879;45.658;11.814;2024-02-21T01:47:00;17.67;71.92
61000;SHT31;46879;45.658;11.814;2024-02-21T01:52:01;17.66;71.98
61000;SHT31;46879;45.658;11.814;2024-02-21T01:57:03;17.66;71.96
61000;SHT31;46879;45.658;11.814;2024-02-21T02:02:05;17.66;71.98
61000;SHT31;46879;45.658;11.814;2024-02-21T02:07:07;17.67;72.04
61000;SHT31;46879;45.658;11.814;2024-02-21T02:12:08;17.67;71.98
61000;SHT31;46879;45.658;11.814;2024-02-21T02:17:09;17.67;71.98
61000;SHT31;46879;45.658;11.814;2024-02-21T02:22:15;17.66;71.87
61000;SHT31;46879;45.658;11.814;2024-02-21T02:27:18;17.67;71.99
61000;SHT31;46879;45.658;11.814;2024-02-21T02:32:19;17.67;72.00
61000;SHT31;46879;45.658;11.814;2024-02-21T02:37:19;17.66;72.01
61000;SHT31;46879;45.658;11.814;2024-02-21T02:42:20;17.61;71.83
61000;SHT31;46879;45.658;11.814;2024-02-21T02:47:20;17.64;71.89
61000;SHT31;46879;45.658;11.814;2024-02-21T02:52:21;17.64;71.80
61000;SHT31;46879;45.658;11.814;2024-02-21T02:57:21;17.63;71.88
61000;SHT31;46879;45.658;11.814;2024-02-21T03:02:23;17.61;71.81
61000;SHT31;46879;45.658;11.814;2024-02-21T03:07:25;17.66;71.92
61000;SHT31;46879;45.658;11.814;2024-02-21T03:12:26;17.64;71.83
61000;SHT31;46879;45.658;11.814;2024-02-21T03:17:28;17.64;71.70
61000;SHT31;46879;45.658;11.814;2024-02-21T03:22:29;17.64;71.78
61000;SHT31;46879;45.658;11.814;2024-02-21T03:27:29;17.66;71.87
61000;SHT31;46879;45.658;11.814;2024-02-21T03:32:30;17.64;71.82
61000;SHT31;46879;45.658;11.814;2024-02-21T03:37:30;17.64;71.84
61000;SHT31;46879;45.658;11.814;2024-02-21T03:42:31;17.61;71.82
61000;SHT31;46879;45.658;11.814;2024-02-21T03:47:32;17.61;71.94
61000;SHT31;46879;45.658;11.814;2024-02-21T03:52:32;17.61;71.92
61000;SHT31;46879;45.658;11.814;2024-02-21T03:57:33;17.64;71.70
61000;SHT31;46879;45.658;11.814;2024-02-21T04:02:33;17.61;71.81
61000;SHT31;46879;45.658;11.814;2024-02-21T04:07:34;17.60;71.82
61000;SHT31;46879;45.658;11.814;2024-02-21T04:12:34;17.60;71.81
61000;SHT31;46879;45.658;11.814;2024-02-21T04:17:36;17.61;71.64
61000;SHT31;46879;45.658;11.814;2024-02-21T04:22:36;17.61;71.66
61000;SHT31;46879;45.658;11.814;2024-02-21T04:27:40;17.61;71.56
61000;SHT31;46879;45.658;11.814;2024-02-21T04:32:41;17.61;71.51
61000;SHT31;46879;45.658;11.814;2024-02-21T04:37:41;17.60;71.50
61000;SHT31;46879;45.658;11.814;2024-02-21T04:42:42;17.59;71.41
61000;SHT31;46879;45.658;11.814;2024-02-21T04:47:43;17.60;71.42
61000;SHT31;46879;45.658;11.814;2024-02-21T04:52:44;17.59;71.36
61000;SHT31;46879;45.658;11.814;2024-02-21T04:57:45;17.61;71.22
61000;SHT31;46879;45.658;11.814;2024-02-21T05:02:45;17.61;71.41
61000;SHT31;46879;45.658;11.814;2024-02-21T05:07:46;17.59;71.46
61000;SHT31;46879;45.658;11.814;2024-02-21T05:12:47;17.60;71.41
61000;SHT31;46879;45.658;11.814;2024-02-21T05:17:47;17.57;71.35
61000;SHT31;46879;45.658;11.814;2024-02-21T05:22:48;17.55;71.46
61000;SHT31;46879;45.658;11.814;2024-02-21T05:27:51;17.57;71.27
61000;SHT31;46879;45.658;11.814;2024-02-21T05:32:53;17.59;71.34
61000;SHT31;46879;45.658;11.814;2024-02-21T05:37:54;17.55;71.28
61000;SHT31;46879;45.658;11.814;2024-02-21T05:42:54;17.55;71.49
61000;SHT31;46879;45.658;11.814;2024-02-21T05:47:55;17.55;71.51
61000;SHT31;46879;45.658;11.814;2024-02-21T05:52:57;17.57;71.57
61000;SHT31;46879;45.658;11.814;2024-02-21T05:57:58;17.53;71.83
61000;SHT31;46879;45.658;11.814;2024-02-21T06:02:59;17.55;72.07
61000;SHT31;46879;45.658;11.814;2024-02-21T06:07:59;17.55;71.99
61000;SHT31;46879;45.658;11.814;2024-02-21T06:13:00;17.55;72.19
61000;SHT31;46879;45.658;11.814;2024-02-21T06:18:00;17.53;72.14
61000;SHT31;46879;45.658;11.814;2024-02-21T06:23:01;17.55;72.20
61000;SHT31;46879;45.658;11.814;2024-02-21T06:28:02;17.54;72.32
61000;SHT31;46879;45.658;11.814;2024-02-21T06:33:03;17.54;72.36
61000;SHT31;46879;45.658;11.814;2024-02-21T06:38:03;17.54;72.46
61000;SHT31;46879;45.658;11.814;2024-02-21T06:43:04;17.51;72.70
61000;SHT31;46879;45.658;11.814;2024-02-21T06:48:05;17.54;72.72
61000;SHT31;46879;45.658;11.814;2024-02-21T06:53:06;17.54;72.84
61000;SHT31;46879;45.658;11.814;2024-02-21T06:58:07;17.59;72.56
61000;SHT31;46879;45.658;11.814;2024-02-21T07:03:12;17.60;72.54
61000;SHT31;46879;45.658;11.814;2024-02-21T07:08:12;17.63;72.38
61000;SHT31;46879;45.658;11.814;2024-02-21T07:13:13;17.59;72.17
61000;SHT31;46879;45.658;11.814;2024-02-21T07:18:16;17.61;71.95
61000;SHT31;46879;45.658;11.814;2024-02-21T07:23:16;17.60;71.89
61000;SHT31;46879;45.658;11.814;2024-02-21T07:28:17;17.60;71.67
61000;SHT31;46879;45.658;11.814;2024-02-21T07:33:17;17.60;71.46
61000;SHT31;46879;45.658;11.814;2024-02-21T07:38:18;17.61;71.29
61000;SHT31;46879;45.658;11.814;2024-02-21T07:43:19;17.60;71.11
61000;SHT31;46879;45.658;11.814;2024-02-21T07:48:21;17.59;70.93
61000;SHT31;46879;45.658;11.814;2024-02-21T07:53:24;17.60;70.79
61000;SHT31;46879;45.658;11.814;2024-02-21T07:58:25;17.64;70.64
61000;SHT31;46879;45.658;11.814;2024-02-21T08:03:25;17.63;70.57
61000;SHT31;46879;45.658;11.814;2024-02-21T08:08:26;17.61;70.44
61000;SHT31;46879;45.658;11.814;2024-02-21T08:13:27;17.60;70.36
61000;SHT31;46879;45.658;11.814;2024-02-21T08:18:29;17.61;70.30
61000;SHT31;46879;45.658;11.814;2024-02-21T08:23:29;17.60;70.27
61000;SHT31;46879;45.658;11.814;2024-02-21T08:28:30;17.61;70.14
61000;SHT31;46879;45.658;11.814;2024-02-21T08:33:30;17.64;70.09
61000;SHT31;46879;45.658;11.814;2024-02-21T08:38:31;17.61;70.00
61000;SHT31;46879;45.658;11.814;2024-02-21T08:43:32;17.63;69.98
61000;SHT31;46879;45.658;11.814;2024-02-21T08:48:34;17.63;69.94
61000;SHT31;46879;45.658;11.814;2024-02-21T08:53:34;17.61;69.94
61000;SHT31;46879;45.658;11.814;2024-02-21T08:58:36;17.66;70.04
61000;SHT31;46879;45.658;11.814;2024-02-21T09:03:40;17.63;69.93
61000;SHT31;46879;45.658;11.814;2024-02-21T09:08:40;17.66;69.92
61000;SHT31;46879;45.658;11.814;2024-02-21T09:13:41;17.60;69.87
61000;SHT31;46879;45.658;11.814;2024-02-21T09:18:41;17.67;69.73
61000;SHT31;46879;45.658;11.814;2024-02-21T09:23:42;17.64;69.66
61000;SHT31;46879;45.658;11.814;2024-02-21T09:28:43;17.67;69.49
61000;SHT31;46879;45.658;11.814;2024-02-21T09:33:47;17.63;69.43
61000;SHT31;46879;45.658;11.814;2024-02-21T09:38:47;17.68;69.10
61000;SHT31;46879;45.658;11.814;2024-02-21T09:43:50;17.66;69.19
61000;SHT31;46879;45.658;11.814;2024-02-21T09:49:34;17.67;68.94
61000;SHT31;46879;45.658;11.814;2024-02-21T09:54:36;17.67;68.87
61000;SHT31;46879;45.658;11.814;2024-02-21T09:59:37;17.68;68.73
61000;SHT31;46879;45.658;11.814;2024-02-21T10:04:40;17.68;68.51
61000;SHT31;46879;45.658;11.814;2024-02-21T10:09:40;17.70;68.47
61000;SHT31;46879;45.658;11.814;2024-02-21T10:14:42;17.70;68.60
61000;SHT31;46879;45.658;11.814;2024-02-21T10:19:43;17.71;68.37
61000;SHT31;46879;45.658;11.814;2024-02-21T10:24:43;17.70;68.29
61000;SHT31;46879;45.658;11.814;2024-02-21T10:29:49;17.71;68.28
61000;SHT31;46879;45.658;11.814;2024-02-21T10:35:04;17.71;68.33
61000;SHT31;46879;45.658;11.814;2024-02-21T10:40:09;17.70;68.20
61000;SHT31;46879;45.658;11.814;2024-02-21T10:45:10;17.74;68.20
61000;SHT31;46879;45.658;11.814;2024-02-21T10:50:11;17.74;68.44
61000;SHT31;46879;45.658;11.814;2024-02-21T10:55:20;17.74;68.17
61000;SHT31;46879;45.658;11.814;2024-02-21T11:00:24;17.74;68.14
61000;SHT31;46879;45.658;11.814;2024-02-21T11:05:31;17.74;68.18
61000;SHT31;46879;45.658;11.814;2024-02-21T11:10:32;17.74;68.09
61000;SHT31;46879;45.658;11.814;2024-02-21T11:15:36;17.71;68.11
61000;SHT31;46879;45.658;11.814;2024-02-21T11:20:38;17.74;68.02
61000;SHT31;46879;45.658;11.814;2024-02-21T11:25:39;17.75;68.07
61000;SHT31;46879;45.658;11.814;2024-02-21T11:30:39;17.74;68.05
61000;SHT31;46879;45.658;11.814;2024-02-21T11:35:40;17.73;68.00
61000;SHT31;46879;45.658;11.814;2024-02-21T11:40:45;17.74;68.06
61000;SHT31;46879;45.658;11.814;2024-02-21T11:45:46;17.74;67.99
61000;SHT31;46879;45.658;11.814;2024-02-21T11:50:54;17.74;68.10
61000;SHT31;46879;45.658;11.814;2024-02-21T11:55:55;17.75;68.19
61000;SHT31;46879;45.658;11.814;2024-02-21T12:00:57;17.77;68.15
61000;SHT31;46879;45.658;11.814;2024-02-21T12:05:58;17.77;68.13
61000;SHT31;46879;45.658;11.814;2024-02-21T12:11:00;17.77;68.17
61000;SHT31;46879;45.658;11.814;2024-02-21T12:16:00;17.73;68.06
61000;SHT31;46879;45.658;11.814;2024-02-21T12:21:01;17.75;68.15
61000;SHT31;46879;45.658;11.814;2024-02-21T12:26:01;17.78;68.18
61000;SHT31;46879;45.658;11.814;2024-02-21T12:31:03;17.77;68.30
61000;SHT31;46879;45.658;11.814;2024-02-21T12:36:04;17.77;68.31
61000;SHT31;46879;45.658;11.814;2024-02-21T12:41:05;17.78;68.34
61000;SHT31;46879;45.658;11.814;2024-02-21T12:46:05;17.77;68.43
61000;SHT31;46879;45.658;11.814;2024-02-21T12:51:08;17.77;68.54
61000;SHT31;46879;45.658;11.814;2024-02-21T12:56:08;17.78;68.51
61000;SHT31;46879;45.658;11.814;2024-02-21T13:01:10;17.75;68.61
61000;SHT31;46879;45.658;11.814;2024-02-21T13:06:11;17.77;68.60
61000;SHT31;46879;45.658;11.814;2024-02-21T13:11:12;17.77;68.60
61000;SHT31;46879;45.658;11.814;2024-02-21T13:16:13;17.78;68.61
61000;SHT31;46879;45.658;11.814;2024-02-21T13:21:14;17.77;68.60
61000;SHT31;46879;45.658;11.814;2024-02-21T13:26:14;17.75;68.64
61000;SHT31;46879;45.658;11.814;2024-02-21T13:31:15;17.77;68.75
61000;SHT31;46879;45.658;11.814;2024-02-21T13:36:19;17.78;69.00
61000;SHT31;46879;45.658;11.814;2024-02-21T13:41:19;17.77;69.04
61000;SHT31;46879;45.658;11.814;2024-02-21T13:46:22;17.78;69.07
61000;SHT31;46879;45.658;11.814;2024-02-21T13:51:23;17.81;69.21
61000;SHT31;46879;45.658;11.814;2024-02-21T13:56:23;17.78;69.23
61000;SHT31;46879;45.658;11.814;2024-02-21T14:01:24;17.78;69.29
61000;SHT31;46879;45.658;11.814;2024-02-21T14:06:24;17.78;69.27
61000;SHT31;46879;45.658;11.814;2024-02-21T14:11:26;17.78;69.32
61000;SHT31;46879;45.658;11.814;2024-02-21T14:16:27;17.78;69.30
61000;SHT31;46879;45.658;11.814;2024-02-21T14:21:28;17.79;69.35
61000;SHT31;46879;45.658;11.814;2024-02-21T14:26:29;17.78;69.43
61000;SHT31;46879;45.658;11.814;2024-02-21T14:31:31;17.79;69.45
61000;SHT31;46879;45.658;11.814;2024-02-21T14:36:33;17.78;69.48
61000;SHT31;46879;45.658;11.814;2024-02-21T14:41:33;17.79;69.48
61000;SHT31;46879;45.658;11.814;2024-02-21T14:46:37;17.78;69.50
61000;SHT31;46879;45.658;11.814;2024-02-21T14:51:38;17.79;69.54
61000;SHT31;46879;45.658;11.814;2024-02-21T14:56:39;17.79;69.57
61000;SHT31;46879;45.658;11.814;2024-02-21T15:01:40;17.79;69.64
61000;SHT31;46879;45.658;11.814;2024-02-21T15:06:40;17.78;69.62
61000;SHT31;46879;45.658;11.814;2024-02-21T15:11:41;17.78;69.65
61000;SHT31;46879;45.658;11.814;2024-02-21T15:16:43;17.78;69.67
61000;SHT31;46879;45.658;11.814;2024-02-21T15:21:44;17.78;69.66
61000;SHT31;46879;45.658;11.814;2024-02-21T15:26:45;17.77;69.70
61000;SHT31;46879;45.658;11.814;2024-02-21T15:31:45;17.77;69.67
61000;SHT31;46879;45.658;11.814;2024-02-21T15:36:46;17.79;70.00
61000;SHT31;46879;45.658;11.814;2024-02-21T15:41:47;17.77;70.35
61000;SHT31;46879;45.658;11.814;2024-02-21T15:46:49;17.79;70.40
61000;SHT31;46879;45.658;11.814;2024-02-21T15:51:51;17.78;70.41
61000;SHT31;46879;45.658;11.814;2024-02-21T15:56:51;17.77;70.42
61000;SHT31;46879;45.658;11.814;2024-02-21T16:01:52;17.75;70.38
61000;SHT31;46879;45.658;11.814;2024-02-21T16:06:52;17.77;70.37
61000;SHT31;46879;45.658;11.814;2024-02-21T16:11:53;17.75;70.39
61000;SHT31;46879;45.658;11.814;2024-02-21T16:16:54;17.77;70.41
61000;SHT31;46879;45.658;11.814;2024-02-21T16:21:57;17.77;70.42
61000;SHT31;46879;45.658;11.814;2024-02-21T16:26:58;17.77;70.36
61000;SHT31;46879;45.658;11.814;2024-02-21T16:31:58;17.73;70.36
61000;SHT31;46879;45.658;11.814;2024-02-21T16:36:59;17.73;70.27
61000;SHT31;46879;45.658;11.814;2024-02-21T16:41:59;17.71;70.22
61000;SHT31;46879;45.658;11.814;2024-02-21T16:47:04;17.73;70.19
61000;SHT31;46879;45.658;11.814;2024-02-21T16:52:05;17.73;70.11
61000;SHT31;46879;45.658;11.814;2024-02-21T16:57:06;17.73;70.06
61000;SHT31;46879;45.658;11.814;2024-02-21T17:07:14;17.70;69.94
61000;SHT31;46879;45.658;11.814;2024-02-21T17:12:14;17.71;69.94
61000;SHT31;46879;45.658;11.814;2024-02-21T17:17:16;17.70;69.91
61000;SHT31;46879;45.658;11.814;2024-02-21T17:22:16;17.70;70.02
61000;SHT31;46879;45.658;11.814;2024-02-21T17:27:17;17.71;70.02
61000;SHT31;46879;45.658;11.814;2024-02-21T17:32:17;17.73;70.02
61000;SHT31;46879;45.658;11.814;2024-02-21T17:37:18;17.73;69.81
61000;SHT31;46879;45.658;11.814;2024-02-21T17:42:19;17.68;69.72
61000;SHT31;46879;45.658;11.814;2024-02-21T17:47:20;17.70;69.66
61000;SHT31;46879;45.658;11.814;2024-02-21T17:52:20;17.68;69.55
61000;SHT31;46879;45.658;11.814;2024-02-21T17:57:21;17.66;69.45
61000;SHT31;46879;45.658;11.814;2024-02-21T18:02:21;17.67;69.22
61000;SHT31;46879;45.658;11.814;2024-02-21T18:07:24;17.66;68.91
61000;SHT31;46879;45.658;11.814;2024-02-21T18:12:25;17.67;68.62
61000;SHT31;46879;45.658;11.814;2024-02-21T18:17:25;17.68;68.51
61000;SHT31;46879;45.658;11.814;2024-02-21T18:22:26;17.67;68.34
61000;SHT31;46879;45.658;11.814;2024-02-21T18:27:29;17.70;68.34
61000;SHT31;46879;45.658;11.814;2024-02-21T18:32:30;17.68;68.29
61000;SHT31;46879;45.658;11.814;2024-02-21T18:37:31;17.67;68.33
61000;SHT31;46879;45.658;11.814;2024-02-21T18:42:32;17.67;68.50
61000;SHT31;46879;45.658;11.814;2024-02-21T18:47:33;17.66;68.66
61000;SHT31;46879;45.658;11.814;2024-02-21T18:52:34;17.73;68.85
61000;SHT31;46879;45.658;11.814;2024-02-21T18:57:35;17.87;68.90
61000;SHT31;46879;45.658;11.814;2024-02-21T19:02:37;17.78;69.18
61000;SHT31;46879;45.658;11.814;2024-02-21T19:07:37;17.75;70.01
61000;SHT31;46879;45.658;11.814;2024-02-21T19:12:39;17.74;69.98
61000;SHT31;46879;45.658;11.814;2024-02-21T19:17:40;17.71;70.68
61000;SHT31;46879;45.658;11.814;2024-02-21T19:22:41;17.71;70.60
61000;SHT31;46879;45.658;11.814;2024-02-21T19:27:46;17.70;70.49
61000;SHT31;46879;45.658;11.814;2024-02-21T19:32:46;17.71;70.44
61000;SHT31;46879;45.658;11.814;2024-02-21T19:37:47;17.70;70.33
61000;SHT31;46879;45.658;11.814;2024-02-21T19:42:49;17.70;70.29
61000;SHT31;46879;45.658;11.814;2024-02-21T19:47:50;17.68;70.32
61000;SHT31;46879;45.658;11.814;2024-02-21T19:52:50;17.68;70.34
61000;SHT31;46879;45.658;11.814;2024-02-21T19:57:52;17.68;70.31
61000;SHT31;46879;45.658;11.814;2024-02-21T20:02:52;17.67;70.30
61000;SHT31;46879;45.658;11.814;2024-02-21T20:07:53;17.67;70.24
61000;SHT31;46879;45.658;11.814;2024-02-21T20:12:53;17.66;70.28
61000;SHT31;46879;45.658;11.814;2024-02-21T20:17:55;17.67;70.26
61000;SHT31;46879;45.658;11.814;2024-02-21T20:22:56;17.66;70.30
61000;SHT31;46879;45.658;11.814;2024-02-21T20:27:57;17.67;70.32
61000;SHT31;46879;45.658;11.814;2024-02-21T20:32:58;17.66;70.30
61000;SHT31;46879;45.658;11.814;2024-02-21T20:37:59;17.64;70.30
61000;SHT31;46879;45.658;11.814;2024-02-21T20:42:59;17.66;70.35
61000;SHT31;46879;45.658;11.814;2024-02-21T20:48:00;17.63;70.37
61000;SHT31;46879;45.658;11.814;2024-02-21T20:53:02;17.63;70.35
61000;SHT31;46879;45.658;11.814;2024-02-21T20:58:02;17.64;70.35
61000;SHT31;46879;45.658;11.814;2024-02-21T21:03:03;17.63;70.32
61000;SHT31;46879;45.658;11.814;2024-02-21T21:08:05;17.64;70.32
61000;SHT31;46879;45.658;11.814;2024-02-21T21:13:06;17.61;70.30
61000;SHT31;46879;45.658;11.814;2024-02-21T21:18:07;17.63;70.25
61000;SHT31;46879;45.658;11.814;2024-02-21T21:23:08;17.63;70.30
61000;SHT31;46879;45.658;11.814;2024-02-21T21:28:08;17.63;70.57
61000;SHT31;46879;45.658;11.814;2024-02-21T21:33:09;17.63;70.61
61000;SHT31;46879;45.658;11.814;2024-02-21T21:38:10;17.60;70.69
61000;SHT31;46879;45.658;11.814;2024-02-21T21:43:13;17.60;70.76
61000;SHT31;46879;45.658;11.814;2024-02-21T21:48:14;17.57;70.77
61000;SHT31;46879;45.658;11.814;2024-02-21T21:53:14;17.60;70.81
61000;SHT31;46879;45.658;11.814;2024-02-21T21:58:15;17.64;70.90
61000;SHT31;46879;45.658;11.814;2024-02-21T22:03:16;17.60;70.93
61000;SHT31;46879;45.658;11.814;2024-02-21T22:08:17;17.73;72.59
61000;SHT31;46879;45.658;11.814;2024-02-21T22:13:17;17.74;74.64
61000;SHT31;46879;45.658;11.814;2024-02-21T22:18:19;17.71;73.97
61000;SHT31;46879;45.658;11.814;2024-02-21T22:23:20;17.70;74.03
61000;SHT31;46879;45.658;11.814;2024-02-21T22:28:21;17.70;73.97
61000;SHT31;46879;45.658;11.814;2024-02-21T22:33:23;17.67;73.87
61000;SHT31;46879;45.658;11.814;2024-02-21T22:38:24;17.68;73.92
61000;SHT31;46879;45.658;11.814;2024-02-21T22:43:25;17.67;73.83
61000;SHT31;46879;45.658;11.814;2024-02-21T22:48:26;17.70;73.82
61000;SHT31;46879;45.658;11.814;2024-02-21T22:53:26;17.68;73.77
61000;SHT31;46879;45.658;11.814;2024-02-21T22:58:27;17.68;73.73
61000;SHT31;46879;45.658;11.814;2024-02-21T23:03:27;17.68;73.78
61000;SHT31;46879;45.658;11.814;2024-02-21T23:08:28;17.67;73.78
61000;SHT31;46879;45.658;11.814;2024-02-21T23:13:29;17.67;73.80
61000;SHT31;46879;45.658;11.814;2024-02-21T23:18:29;17.66;73.76
61000;SHT31;46879;45.658;11.814;2024-02-21T23:23:30;17.67;73.67
61000;SHT31;46879;45.658;11.814;2024-02-21T23:28:30;17.66;73.62
61000;SHT31;46879;45.658;11.814;2024-02-21T23:33:31;17.66;73.71
61000;SHT31;46879;45.658;11.814;2024-02-21T23:38:34;17.66;73.58
61000;SHT31;46879;45.658;11.814;2024-02-21T23:43:42;17.67;73.59
61000;SHT31;46879;45.658;11.814;2024-02-21T23:48:43;17.67;73.59
61000;SHT31;46879;45.658;11.814;2024-02-21T23:53:44;17.61;73.61
61000;SHT31;46879;45.658;11.814;2024-02-21T23:58:44;17.64;73.59
